sensor_id;sensor_type;location;lat;lon;timestamp;pressure;altitude;pressure_sealevel;temperature;humidity
80308;BME280;69616;43.522;1.348;2023-05-06T00:00:15;99923.88;;;19.56;58.12
80308;BME280;69616;43.522;1.348;2023-05-06T00:02:41;99921.41;;;19.51;58.27
80308;BME280;69616;43.522;1.348;2023-05-06T00:05:07;99923.38;;;19.47;58.11
80308;BME280;69616;43.522;1.348;2023-05-06T00:07:32;99918.25;;;19.43;58.27
80308;BME280;69616;43.522;1.348;2023-05-06T00:09:58;99909.66;;;19.36;58.69
80308;BME280;69616;43.522;1.348;2023-05-06T00:12:23;99912.59;;;19.30;59.20
80308;BME280;69616;43.522;1.348;2023-05-06T00:14:48;99907.25;;;19.30;58.74
80308;BME280;69616;43.522;1.348;2023-05-06T00:17:14;99903.75;;;19.29;58.90
80308;BME280;69616;43.522;1.348;2023-05-06T00:19:39;99905.47;;;19.30;59.00
80308;BME280;69616;43.522;1.348;2023-05-06T00:22:05;99902.81;;;19.30;59.27
80308;BME280;69616;43.522;1.348;2023-05-06T00:24:30;99897.47;;;19.30;58.92
80308;BME280;69616;43.522;1.348;2023-05-06T00:26:55;99902.88;;;19.29;58.77
80308;BME280;69616;43.522;1.348;2023-05-06T00:29:22;99893.13;;;19.28;59.10
80308;BME280;69616;43.522;1.348;2023-05-06T00:31:47;99884.38;;;19.24;58.89
80308;BME280;69616;43.522;1.348;2023-05-06T00:34:13;99881.00;;;19.20;58.91
80308;BME280;69616;43.522;1.348;2023-05-06T00:36:38;99879.41;;;19.16;59.11
80308;BME280;69616;43.522;1.348;2023-05-06T00:39:04;99874.19;;;19.13;59.20
80308;BME280;69616;43.522;1.348;2023-05-06T00:41:31;99870.97;;;19.06;59.44
80308;BME280;69616;43.522;1.348;2023-05-06T00:43:57;99872.75;;;19.06;59.13
80308;BME280;69616;43.522;1.348;2023-05-06T00:46:22;99876.38;;;19.05;59.47
80308;BME280;69616;43.522;1.348;2023-05-06T00:48:48;99867.56;;;19.03;59.55
80308;BME280;69616;43.522;1.348;2023-05-06T00:51:14;99856.16;;;18.99;59.50
80308;BME280;69616;43.522;1.348;2023-05-06T00:53:39;99863.41;;;18.96;59.60
80308;BME280;69616;43.522;1.348;2023-05-06T00:56:05;99851.22;;;18.90;59.69
80308;BME280;69616;43.522;1.348;2023-05-06T00:58:32;99850.47;;;18.86;60.05
80308;BME280;69616;43.522;1.348;2023-05-06T01:00:58;99845.44;;;18.80;60.23
80308;BME280;69616;43.522;1.348;2023-05-06T01:03:24;99845.56;;;18.77;60.48
80308;BME280;69616;43.522;1.348;2023-05-06T01:05:58;99839.50;;;18.73;60.47
80308;BME280;69616;43.522;1.348;2023-05-06T01:08:32;99846.38;;;18.58;60.91
80308;BME280;69616;43.522;1.348;2023-05-06T01:11:15;99841.19;;;18.55;61.39
80308;BME280;69616;43.522;1.348;2023-05-06T01:17:03;99839.66;;;18.29;61.64
80308;BME280;69616;43.522;1.348;2023-05-06T01:19:36;99834.41;;;18.27;62.03
80308;BME280;69616;43.522;1.348;2023-05-06T01:22:04;99830.81;;;18.28;61.63
80308;BME280;69616;43.522;1.348;2023-05-06T01:24:40;99829.13;;;18.26;62.38
80308;BME280;69616;43.522;1.348;2023-05-06T01:27:07;99829.41;;;18.19;62.07
80308;BME280;69616;43.522;1.348;2023-05-06T01:29:34;99825.06;;;18.17;62.06
80308;BME280;69616;43.522;1.348;2023-05-06T01:34:49;99821.72;;;18.12;62.46
80308;BME280;69616;43.522;1.348;2023-05-06T01:37:30;99821.06;;;18.06;63.28
80308;BME280;69616;43.522;1.348;2023-05-06T01:39:57;99824.19;;;17.94;62.61
80308;BME280;69616;43.522;1.348;2023-05-06T01:42:25;99823.59;;;17.87;62.92
80308;BME280;69616;43.522;1.348;2023-05-06T01:44:51;99819.13;;;17.88;62.87
80308;BME280;69616;43.522;1.348;2023-05-06T01:47:19;99803.03;;;17.91;62.67
80308;BME280;69616;43.522;1.348;2023-05-06T01:49:45;99798.34;;;17.96;62.59
80308;BME280;69616;43.522;1.348;2023-05-06T01:52:11;99799.94;;;18.02;62.45
80308;BME280;69616;43.522;1.348;2023-05-06T01:54:36;99797.28;;;18.02;62.32
80308;BME280;69616;43.522;1.348;2023-05-06T01:57:02;99794.66;;;18.00;62.37
80308;BME280;69616;43.522;1.348;2023-05-06T01:59:27;99792.81;;;18.02;62.55
80308;BME280;69616;43.522;1.348;2023-05-06T02:01:52;99786.63;;;18.02;62.69
80308;BME280;69616;43.522;1.348;2023-05-06T02:04:18;99791.19;;;17.98;62.71
80308;BME280;69616;43.522;1.348;2023-05-06T02:06:43;99786.91;;;17.94;62.79
80308;BME280;69616;43.522;1.348;2023-05-06T02:09:08;99780.63;;;17.95;62.60
80308;BME280;69616;43.522;1.348;2023-05-06T02:11:34;99781.47;;;17.97;62.63
80308;BME280;69616;43.522;1.348;2023-05-06T02:13:59;99785.78;;;18.00;62.39
80308;BME280;69616;43.522;1.348;2023-05-06T02:16:27;99786.09;;;17.92;62.87
80308;BME280;69616;43.522;1.348;2023-05-06T02:18:53;99789.03;;;17.86;62.96
80308;BME280;69616;43.522;1.348;2023-05-06T02:21:18;99790.84;;;17.85;62.76
80308;BME280;69616;43.522;1.348;2023-05-06T02:23:44;99793.44;;;17.87;62.76
80308;BME280;69616;43.522;1.348;2023-05-06T02:26:09;99795.25;;;17.86;62.55
80308;BME280;69616;43.522;1.348;2023-05-06T02:28:35;99793.50;;;17.85;62.62
80308;BME280;69616;43.522;1.348;2023-05-06T02:31:00;99790.84;;;17.85;62.70
80308;BME280;69616;43.522;1.348;2023-05-06T02:33:26;99792.75;;;17.82;62.79
80308;BME280;69616;43.522;1.348;2023-05-06T02:35:51;99786.78;;;17.76;62.61
80308;BME280;69616;43.522;1.348;2023-05-06T02:38:18;99783.22;;;17.76;62.69
80308;BME280;69616;43.522;1.348;2023-05-06T02:40:43;99785.09;;;17.74;62.68
80308;BME280;69616;43.522;1.348;2023-05-06T02:43:09;99785.25;;;17.69;62.84
80308;BME280;69616;43.522;1.348;2023-05-06T02:45:34;99783.38;;;17.50;63.43
80308;BME280;69616;43.522;1.348;2023-05-06T02:47:59;99780.63;;;17.52;63.34
80308;BME280;69616;43.522;1.348;2023-05-06T02:50:25;99779.66;;;17.55;63.41
80308;BME280;69616;43.522;1.348;2023-05-06T02:52:50;99785.97;;;17.52;63.18
80308;BME280;69616;43.522;1.348;2023-05-06T02:55:16;99782.59;;;17.48;63.29
80308;BME280;69616;43.522;1.348;2023-05-06T02:57:42;99786.22;;;17.46;63.17
80308;BME280;69616;43.522;1.348;2023-05-06T03:00:07;99777.44;;;17.44;63.23
80308;BME280;69616;43.522;1.348;2023-05-06T03:02:35;99776.56;;;17.43;63.33
80308;BME280;69616;43.522;1.348;2023-05-06T03:05:00;99771.22;;;17.43;63.29
80308;BME280;69616;43.522;1.348;2023-05-06T03:07:28;99764.97;;;17.44;63.35
80308;BME280;69616;43.522;1.348;2023-05-06T03:09:54;99765.91;;;17.43;63.30
80308;BME280;69616;43.522;1.348;2023-05-06T03:12:20;99763.25;;;17.43;63.23
80308;BME280;69616;43.522;1.348;2023-05-06T03:14:45;99766.13;;;17.39;63.31
80308;BME280;69616;43.522;1.348;2023-05-06T03:17:10;99761.91;;;17.33;63.51
80308;BME280;69616;43.522;1.348;2023-05-06T03:19:36;99761.03;;;17.32;63.54
80308;BME280;69616;43.522;1.348;2023-05-06T03:22:01;99765.41;;;17.33;63.39
80308;BME280;69616;43.522;1.348;2023-05-06T03:24:27;99754.78;;;17.33;63.42
80308;BME280;69616;43.522;1.348;2023-05-06T03:26:52;99762.88;;;17.30;63.76
80308;BME280;69616;43.522;1.348;2023-05-06T03:29:18;99758.75;;;17.23;63.80
80308;BME280;69616;43.522;1.348;2023-05-06T03:31:43;99752.66;;;17.19;63.55
80308;BME280;69616;43.522;1.348;2023-05-06T03:34:09;99754.53;;;17.17;63.78
80308;BME280;69616;43.522;1.348;2023-05-06T03:36:34;99759.84;;;17.17;63.90
80308;BME280;69616;43.522;1.348;2023-05-06T03:39:00;99751.94;;;17.16;63.89
80308;BME280;69616;43.522;1.348;2023-05-06T03:41:25;99755.53;;;17.15;63.85
80308;BME280;69616;43.522;1.348;2023-05-06T03:43:50;99758.22;;;17.13;63.73
80308;BME280;69616;43.522;1.348;2023-05-06T03:46:16;99751.31;;;17.09;63.60
80308;BME280;69616;43.522;1.348;2023-05-06T03:48:42;99747.84;;;17.07;63.91
80308;BME280;69616;43.522;1.348;2023-05-06T03:51:07;99746.25;;;17.03;63.55
80308;BME280;69616;43.522;1.348;2023-05-06T03:53:33;99750.75;;;17.01;63.83
80308;BME280;69616;43.522;1.348;2023-05-06T03:55:58;99750.81;;;16.98;64.10
80308;BME280;69616;43.522;1.348;2023-05-06T03:58:25;99750.00;;;16.96;64.16
80308;BME280;69616;43.522;1.348;2023-05-06T04:00:51;99744.13;;;16.87;64.41
80308;BME280;69616;43.522;1.348;2023-05-06T04:03:16;99752.22;;;16.84;64.27
80308;BME280;69616;43.522;1.348;2023-05-06T04:05:42;99745.31;;;16.80;64.48
80308;BME280;69616;43.522;1.348;2023-05-06T04:08:07;99752.56;;;16.75;64.87
80308;BME280;69616;43.522;1.348;2023-05-06T04:10:38;99760.78;;;16.69;64.94
80308;BME280;69616;43.522;1.348;2023-05-06T04:13:04;99766.06;;;16.70;64.60
80308;BME280;69616;43.522;1.348;2023-05-06T04:15:30;99757.16;;;16.71;64.52
80308;BME280;69616;43.522;1.348;2023-05-06T04:17:58;99763.41;;;16.70;64.37
80308;BME280;69616;43.522;1.348;2023-05-06T04:20:23;99762.59;;;16.68;64.37
80308;BME280;69616;43.522;1.348;2023-05-06T04:22:49;99761.78;;;16.66;64.65
80308;BME280;69616;43.522;1.348;2023-05-06T04:25:15;99761.78;;;16.66;64.50
80308;BME280;69616;43.522;1.348;2023-05-06T04:27:42;99763.63;;;16.64;64.49
80308;BME280;69616;43.522;1.348;2023-05-06T04:30:08;99762.75;;;16.63;64.54
80308;BME280;69616;43.522;1.348;2023-05-06T04:32:33;99764.53;;;16.63;64.60
80308;BME280;69616;43.522;1.348;2023-05-06T04:34:59;99762.91;;;16.59;64.30
80308;BME280;69616;43.522;1.348;2023-05-06T04:37:24;99761.38;;;16.53;64.71
80308;BME280;69616;43.522;1.348;2023-05-06T04:39:52;99760.53;;;16.51;64.91
80308;BME280;69616;43.522;1.348;2023-05-06T04:42:18;99760.53;;;16.51;64.78
80308;BME280;69616;43.522;1.348;2023-05-06T04:44:44;99767.69;;;16.49;64.83
80308;BME280;69616;43.522;1.348;2023-05-06T04:47:10;99763.25;;;16.49;64.54
80308;BME280;69616;43.522;1.348;2023-05-06T04:49:35;99764.19;;;16.48;64.62
80308;BME280;69616;43.522;1.348;2023-05-06T04:52:00;99766.97;;;16.45;64.75
80308;BME280;69616;43.522;1.348;2023-05-06T04:54:26;99765.22;;;16.44;64.63
80308;BME280;69616;43.522;1.348;2023-05-06T04:56:51;99762.47;;;16.47;64.82
80308;BME280;69616;43.522;1.348;2023-05-06T04:59:16;99759.72;;;16.49;64.63
80308;BME280;69616;43.522;1.348;2023-05-06T05:01:42;99754.31;;;16.52;64.57
80308;BME280;69616;43.522;1.348;2023-05-06T05:04:07;99759.91;;;16.44;64.94
80308;BME280;69616;43.522;1.348;2023-05-06T05:06:33;99764.22;;;16.47;65.13
80308;BME280;69616;43.522;1.348;2023-05-06T05:08:58;99765.97;;;16.48;65.07
80308;BME280;69616;43.522;1.348;2023-05-06T05:11:23;99768.50;;;16.51;65.20
80308;BME280;69616;43.522;1.348;2023-05-06T05:13:49;99772.00;;;16.53;64.94
80308;BME280;69616;43.522;1.348;2023-05-06T05:16:15;99775.16;;;16.63;64.93
80308;BME280;69616;43.522;1.348;2023-05-06T05:18:40;99773.84;;;16.75;64.49
80308;BME280;69616;43.522;1.348;2023-05-06T05:21:06;99776.41;;;16.78;64.41
80308;BME280;69616;43.522;1.348;2023-05-06T05:23:31;99785.00;;;16.85;64.45
80308;BME280;69616;43.522;1.348;2023-05-06T05:25:57;99780.19;;;16.94;64.11
80308;BME280;69616;43.522;1.348;2023-05-06T05:28:22;99774.88;;;16.94;64.25
80308;BME280;69616;43.522;1.348;2023-05-06T05:30:47;99777.50;;;16.96;64.30
80308;BME280;69616;43.522;1.348;2023-05-06T05:33:13;99777.34;;;17.01;64.41
80308;BME280;69616;43.522;1.348;2023-05-06T05:35:38;99778.88;;;17.06;64.21
80308;BME280;69616;43.522;1.348;2023-05-06T05:38:03;99789.09;;;17.17;64.09
80308;BME280;69616;43.522;1.348;2023-05-06T05:40:29;99793.16;;;17.28;63.68
80308;BME280;69616;43.522;1.348;2023-05-06T05:42:54;99796.06;;;17.44;62.91
80308;BME280;69616;43.522;1.348;2023-05-06T05:45:19;99793.81;;;17.55;63.07
80308;BME280;69616;43.522;1.348;2023-05-06T05:47:45;99788.88;;;17.68;62.47
80308;BME280;69616;43.522;1.348;2023-05-06T05:50:11;99789.84;;;17.88;62.03
80308;BME280;69616;43.522;1.348;2023-05-06T05:52:36;99795.50;;;18.02;61.65
80308;BME280;69616;43.522;1.348;2023-05-06T05:55:01;99792.22;;;18.16;61.28
80308;BME280;69616;43.522;1.348;2023-05-06T05:57:27;99790.03;;;18.26;60.99
80308;BME280;69616;43.522;1.348;2023-05-06T05:59:52;99796.16;;;18.28;60.68
80308;BME280;69616;43.522;1.348;2023-05-06T06:02:18;99791.94;;;18.22;60.85
80308;BME280;69616;43.522;1.348;2023-05-06T06:04:43;99808.88;;;18.21;60.94
80308;BME280;69616;43.522;1.348;2023-05-06T06:07:08;99803.50;;;18.23;60.91
80308;BME280;69616;43.522;1.348;2023-05-06T06:09:34;99801.50;;;18.28;60.64
80308;BME280;69616;43.522;1.348;2023-05-06T06:12:00;99796.88;;;18.32;60.67
80308;BME280;69616;43.522;1.348;2023-05-06T06:14:26;99804.81;;;18.33;60.66
80308;BME280;69616;43.522;1.348;2023-05-06T06:16:51;99797.63;;;18.35;60.45
80308;BME280;69616;43.522;1.348;2023-05-06T06:19:17;99788.41;;;18.43;60.55
80308;BME280;69616;43.522;1.348;2023-05-06T06:21:42;99794.19;;;18.53;60.49
80308;BME280;69616;43.522;1.348;2023-05-06T06:24:07;99788.84;;;18.53;60.65
80308;BME280;69616;43.522;1.348;2023-05-06T06:26:33;99793.84;;;18.60;60.53
80308;BME280;69616;43.522;1.348;2023-05-06T06:28:58;99785.00;;;18.60;60.41
80308;BME280;69616;43.522;1.348;2023-05-06T06:31:24;99785.44;;;18.70;60.55
80308;BME280;69616;43.522;1.348;2023-05-06T06:33:49;99787.19;;;18.71;60.14
80308;BME280;69616;43.522;1.348;2023-05-06T06:36:14;99785.16;;;18.76;60.24
80308;BME280;69616;43.522;1.348;2023-05-06T06:38:40;99784.72;;;18.85;60.17
80308;BME280;69616;43.522;1.348;2023-05-06T06:41:05;99785.16;;;18.95;60.06
80308;BME280;69616;43.522;1.348;2023-05-06T06:43:31;99779.31;;;19.07;59.75
80308;BME280;69616;43.522;1.348;2023-05-06T06:45:56;99780.84;;;19.31;59.14
80308;BME280;69616;43.522;1.348;2023-05-06T06:48:22;99775.88;;;19.60;58.98
80308;BME280;69616;43.522;1.348;2023-05-06T06:50:47;99773.03;;;19.82;58.34
80308;BME280;69616;43.522;1.348;2023-05-06T06:53:13;99782.00;;;19.99;57.62
80308;BME280;69616;43.522;1.348;2023-05-06T06:55:41;99783.59;;;20.03;57.25
80308;BME280;69616;43.522;1.348;2023-05-06T06:58:07;99774.47;;;20.07;56.91
80308;BME280;69616;43.522;1.348;2023-05-06T07:00:32;99769.19;;;20.05;57.17
80308;BME280;69616;43.522;1.348;2023-05-06T07:02:57;99769.28;;;20.04;57.00
80308;BME280;69616;43.522;1.348;2023-05-06T07:05:24;99776.03;;;20.11;57.36
80308;BME280;69616;43.522;1.348;2023-05-06T07:07:51;99764.34;;;20.14;57.05
80308;BME280;69616;43.522;1.348;2023-05-06T07:10:16;99762.75;;;20.10;56.65
80308;BME280;69616;43.522;1.348;2023-05-06T07:12:41;99764.25;;;20.15;56.62
80308;BME280;69616;43.522;1.348;2023-05-06T07:15:07;99764.16;;;20.17;56.99
80308;BME280;69616;43.522;1.348;2023-05-06T07:17:32;99773.66;;;20.22;56.33
80308;BME280;69616;43.522;1.348;2023-05-06T07:19:58;99767.47;;;20.22;56.59
80308;BME280;69616;43.522;1.348;2023-05-06T07:22:25;99774.13;;;20.31;56.30
80308;BME280;69616;43.522;1.348;2023-05-06T07:24:50;99766.50;;;20.41;56.07
80308;BME280;69616;43.522;1.348;2023-05-06T07:27:15;99765.41;;;20.61;55.96
80308;BME280;69616;43.522;1.348;2023-05-06T07:29:41;99769.94;;;20.76;55.83
80308;BME280;69616;43.522;1.348;2023-05-06T07:32:06;99760.25;;;20.91;55.09
80308;BME280;69616;43.522;1.348;2023-05-06T07:34:31;99766.13;;;21.14;54.66
80308;BME280;69616;43.522;1.348;2023-05-06T07:36:58;99761.00;;;21.26;54.20
80308;BME280;69616;43.522;1.348;2023-05-06T07:39:24;99758.16;;;21.29;54.25
80308;BME280;69616;43.522;1.348;2023-05-06T07:41:49;99758.63;;;21.51;54.11
80308;BME280;69616;43.522;1.348;2023-05-06T07:44:15;99760.88;;;21.75;54.16
80308;BME280;69616;43.522;1.348;2023-05-06T07:46:41;99757.31;;;22.05;53.16
80308;BME280;69616;43.522;1.348;2023-05-06T07:49:06;99756.19;;;22.24;52.63
80308;BME280;69616;43.522;1.348;2023-05-06T07:51:32;99749.72;;;22.43;51.79
80308;BME280;69616;43.522;1.348;2023-05-06T07:53:57;99743.09;;;22.34;51.55
80308;BME280;69616;43.522;1.348;2023-05-06T07:56:22;99746.44;;;22.37;51.36
80308;BME280;69616;43.522;1.348;2023-05-06T07:58:48;99741.22;;;22.50;50.95
80308;BME280;69616;43.522;1.348;2023-05-06T08:01:14;99739.59;;;22.62;51.14
80308;BME280;69616;43.522;1.348;2023-05-06T08:03:40;99737.06;;;22.74;50.00
80308;BME280;69616;43.522;1.348;2023-05-06T08:06:05;99738.72;;;22.76;50.05
80308;BME280;69616;43.522;1.348;2023-05-06T08:08:31;99723.84;;;22.85;49.39
80308;BME280;69616;43.522;1.348;2023-05-06T08:10:57;99739.47;;;22.78;49.28
80308;BME280;69616;43.522;1.348;2023-05-06T08:13:24;99730.47;;;22.79;49.63
80308;BME280;69616;43.522;1.348;2023-05-06T08:15:50;99725.16;;;22.78;48.44
80308;BME280;69616;43.522;1.348;2023-05-06T08:18:16;99733.06;;;22.81;48.18
80308;BME280;69616;43.522;1.348;2023-05-06T08:20:41;99731.44;;;22.49;48.96
80308;BME280;69616;43.522;1.348;2023-05-06T08:23:06;99738.50;;;22.65;49.03
80308;BME280;69616;43.522;1.348;2023-05-06T08:25:32;99734.19;;;22.77;48.56
80308;BME280;69616;43.522;1.348;2023-05-06T08:27:57;99725.00;;;22.81;48.75
80308;BME280;69616;43.522;1.348;2023-05-06T08:30:23;99722.59;;;22.91;48.99
80308;BME280;69616;43.522;1.348;2023-05-06T08:32:48;99735.69;;;22.96;49.00
80308;BME280;69616;43.522;1.348;2023-05-06T08:35:13;99721.34;;;22.82;49.05
80308;BME280;69616;43.522;1.348;2023-05-06T08:37:40;99720.28;;;22.85;49.05
80308;BME280;69616;43.522;1.348;2023-05-06T08:40:16;99722.31;;;22.81;48.96
80308;BME280;69616;43.522;1.348;2023-05-06T08:42:44;99718.16;;;22.90;49.51
80308;BME280;69616;43.522;1.348;2023-05-06T08:45:10;99716.91;;;22.96;49.36
80308;BME280;69616;43.522;1.348;2023-05-06T08:47:35;99710.28;;;23.01;48.93
80308;BME280;69616;43.522;1.348;2023-05-06T08:50:01;99712.94;;;23.16;48.71
80308;BME280;69616;43.522;1.348;2023-05-06T08:52:27;99712.69;;;23.33;48.18
80308;BME280;69616;43.522;1.348;2023-05-06T08:54:54;99699.25;;;23.61;48.26
80308;BME280;69616;43.522;1.348;2023-05-06T08:57:27;99713.16;;;23.80;47.94
80308;BME280;69616;43.522;1.348;2023-05-06T08:59:53;99714.75;;;23.83;48.03
80308;BME280;69616;43.522;1.348;2023-05-06T09:02:20;99705.09;;;23.93;47.63
80308;BME280;69616;43.522;1.348;2023-05-06T09:04:47;99701.88;;;23.88;47.29
80308;BME280;69616;43.522;1.348;2023-05-06T09:07:12;99695.22;;;24.07;47.25
80308;BME280;69616;43.522;1.348;2023-05-06T09:09:38;99692.88;;;24.28;47.39
80308;BME280;69616;43.522;1.348;2023-05-06T09:12:03;99692.41;;;24.47;46.87
80308;BME280;69616;43.522;1.348;2023-05-06T09:14:33;99684.84;;;24.65;46.97
80308;BME280;69616;43.522;1.348;2023-05-06T09:16:59;99694.13;;;24.48;45.44
80308;BME280;69616;43.522;1.348;2023-05-06T09:19:25;99689.06;;;24.57;44.78
80308;BME280;69616;43.522;1.348;2023-05-06T09:21:51;99689.53;;;24.37;44.70
80308;BME280;69616;43.522;1.348;2023-05-06T09:24:17;99688.66;;;24.50;44.70
80308;BME280;69616;43.522;1.348;2023-05-06T09:26:43;99680.13;;;24.56;44.82
80308;BME280;69616;43.522;1.348;2023-05-06T09:29:09;99680.94;;;24.70;44.35
80308;BME280;69616;43.522;1.348;2023-05-06T09:31:43;99682.66;;;24.71;44.33
80308;BME280;69616;43.522;1.348;2023-05-06T09:34:09;99671.28;;;24.80;44.17
80308;BME280;69616;43.522;1.348;2023-05-06T09:36:34;99673.72;;;24.83;44.31
80308;BME280;69616;43.522;1.348;2023-05-06T09:39:00;99658.72;;;24.92;44.11
80308;BME280;69616;43.522;1.348;2023-05-06T09:41:26;99664.72;;;24.96;43.88
80308;BME280;69616;43.522;1.348;2023-05-06T09:43:52;99660.97;;;24.98;44.26
80308;BME280;69616;43.522;1.348;2023-05-06T09:46:20;99656.03;;;25.16;43.76
80308;BME280;69616;43.522;1.348;2023-05-06T09:48:46;99656.84;;;25.30;43.61
80308;BME280;69616;43.522;1.348;2023-05-06T09:51:12;99653.03;;;25.57;42.78
80308;BME280;69616;43.522;1.348;2023-05-06T09:53:37;99646.91;;;25.66;42.91
80308;BME280;69616;43.522;1.348;2023-05-06T09:56:04;99650.00;;;25.73;42.82
80308;BME280;69616;43.522;1.348;2023-05-06T09:58:31;99644.50;;;25.74;42.62
80308;BME280;69616;43.522;1.348;2023-05-06T10:00:57;99633.97;;;25.71;42.40
80308;BME280;69616;43.522;1.348;2023-05-06T10:03:24;99643.25;;;25.67;42.62
80308;BME280;69616;43.522;1.348;2023-05-06T10:05:51;99638.81;;;25.66;42.62
80308;BME280;69616;43.522;1.348;2023-05-06T10:08:17;99636.81;;;25.81;42.18
80308;BME280;69616;43.522;1.348;2023-05-06T10:10:44;99640.72;;;25.88;41.96
80308;BME280;69616;43.522;1.348;2023-05-06T10:13:12;99633.72;;;25.86;42.08
80308;BME280;69616;43.522;1.348;2023-05-06T10:15:38;99627.22;;;26.00;42.10
80308;BME280;69616;43.522;1.348;2023-05-06T10:18:06;99635.22;;;26.13;41.75
80308;BME280;69616;43.522;1.348;2023-05-06T10:20:35;99628.16;;;26.23;41.30
80308;BME280;69616;43.522;1.348;2023-05-06T10:23:34;99620.03;;;26.34;40.95
80308;BME280;69616;43.522;1.348;2023-05-06T10:26:10;99619.38;;;26.65;41.17
80308;BME280;69616;43.522;1.348;2023-05-06T10:28:40;99619.84;;;26.82;40.72
80308;BME280;69616;43.522;1.348;2023-05-06T10:31:09;99613.22;;;26.86;41.37
80308;BME280;69616;43.522;1.348;2023-05-06T10:33:36;99611.41;;;27.07;40.92
80308;BME280;69616;43.522;1.348;2023-05-06T10:38:47;99601.97;;;27.34;40.11
80308;BME280;69616;43.522;1.348;2023-05-06T10:41:14;99602.47;;;27.49;40.13
80308;BME280;69616;43.522;1.348;2023-05-06T10:43:42;99598.16;;;27.58;40.11
80308;BME280;69616;43.522;1.348;2023-05-06T10:48:39;99595.06;;;27.63;39.06
80308;BME280;69616;43.522;1.348;2023-05-06T10:51:24;99595.06;;;27.63;38.86
80308;BME280;69616;43.522;1.348;2023-05-06T10:54:00;99594.25;;;27.72;39.11
80308;BME280;69616;43.522;1.348;2023-05-06T10:59:13;99595.38;;;27.70;39.15
80308;BME280;69616;43.522;1.348;2023-05-06T11:01:42;99589.50;;;27.86;38.81
80308;BME280;69616;43.522;1.348;2023-05-06T11:04:12;99591.56;;;28.03;38.74
80308;BME280;69616;43.522;1.348;2023-05-06T11:06:46;99588.31;;;28.10;37.96
80308;BME280;69616;43.522;1.348;2023-05-06T11:09:19;99575.09;;;28.16;38.27
80308;BME280;69616;43.522;1.348;2023-05-06T11:12:02;99574.31;;;28.26;38.24
80308;BME280;69616;43.522;1.348;2023-05-06T11:14:29;99571.22;;;28.50;37.76
80308;BME280;69616;43.522;1.348;2023-05-06T11:16:59;99564.34;;;28.46;36.92
80308;BME280;69616;43.522;1.348;2023-05-06T11:19:27;99565.47;;;28.43;37.22
80308;BME280;69616;43.522;1.348;2023-05-06T11:21:55;99555.25;;;28.57;37.53
80308;BME280;69616;43.522;1.348;2023-05-06T11:24:37;99553.97;;;28.51;37.51
80308;BME280;69616;43.522;1.348;2023-05-06T11:27:02;99547.13;;;28.57;36.63
80308;BME280;69616;43.522;1.348;2023-05-06T11:29:28;99541.59;;;28.58;36.87
80308;BME280;69616;43.522;1.348;2023-05-06T11:31:53;99548.69;;;28.49;36.86
80308;BME280;69616;43.522;1.348;2023-05-06T11:34:30;99540.69;;;28.48;36.76
80308;BME280;69616;43.522;1.348;2023-05-06T11:37:05;99544.44;;;28.67;37.05
80308;BME280;69616;43.522;1.348;2023-05-06T11:39:33;99538.88;;;28.58;36.95
80308;BME280;69616;43.522;1.348;2023-05-06T11:42:04;99548.28;;;28.64;36.70
80308;BME280;69616;43.522;1.348;2023-05-06T11:44:35;99552.13;;;28.61;36.50
80308;BME280;69616;43.522;1.348;2023-05-06T11:47:06;99541.31;;;28.61;37.02
80308;BME280;69616;43.522;1.348;2023-05-06T11:49:44;99545.84;;;28.71;36.76
80308;BME280;69616;43.522;1.348;2023-05-06T11:52:11;99538.47;;;28.92;36.38
80308;BME280;69616;43.522;1.348;2023-05-06T11:54:40;99539.06;;;28.96;35.97
80308;BME280;69616;43.522;1.348;2023-05-06T11:57:06;99537.88;;;29.18;36.09
80308;BME280;69616;43.522;1.348;2023-05-06T11:59:33;99541.03;;;29.14;35.63
80308;BME280;69616;43.522;1.348;2023-05-06T12:02:02;99543.31;;;29.08;35.43
80308;BME280;69616;43.522;1.348;2023-05-06T12:04:36;99540.47;;;29.10;35.15
80308;BME280;69616;43.522;1.348;2023-05-06T12:07:04;99534.19;;;29.10;35.37
80308;BME280;69616;43.522;1.348;2023-05-06T12:09:30;99534.47;;;29.06;35.48
80308;BME280;69616;43.522;1.348;2023-05-06T12:11:56;99528.16;;;29.26;35.75
80308;BME280;69616;43.522;1.348;2023-05-06T12:14:21;99535.16;;;29.38;35.31
80308;BME280;69616;43.522;1.348;2023-05-06T12:16:47;99527.28;;;29.55;35.46
80308;BME280;69616;43.522;1.348;2023-05-06T12:19:16;99530.34;;;29.79;35.07
80308;BME280;69616;43.522;1.348;2023-05-06T12:21:42;99528.53;;;29.98;34.61
80308;BME280;69616;43.522;1.348;2023-05-06T12:24:08;99519.34;;;30.09;34.35
80308;BME280;69616;43.522;1.348;2023-05-06T12:26:44;99522.25;;;29.98;34.22
80308;BME280;69616;43.522;1.348;2023-05-06T12:29:12;99523.72;;;30.20;34.89
80308;BME280;69616;43.522;1.348;2023-05-06T12:31:40;99526.25;;;30.31;34.63
80308;BME280;69616;43.522;1.348;2023-05-06T12:34:05;99522.13;;;30.27;34.47
80308;BME280;69616;43.522;1.348;2023-05-06T12:36:31;99514.06;;;30.35;34.79
80308;BME280;69616;43.522;1.348;2023-05-06T12:39:00;99518.59;;;30.17;34.24
80308;BME280;69616;43.522;1.348;2023-05-06T12:41:55;99516.25;;;29.66;35.49
80308;BME280;69616;43.522;1.348;2023-05-06T12:47:22;99500.22;;;30.11;35.07
80308;BME280;69616;43.522;1.348;2023-05-06T12:49:50;99498.53;;;30.28;35.41
80308;BME280;69616;43.522;1.348;2023-05-06T12:52:21;99501.63;;;30.33;34.77
80308;BME280;69616;43.522;1.348;2023-05-06T12:54:48;99498.31;;;30.39;34.57
80308;BME280;69616;43.522;1.348;2023-05-06T12:57:14;99499.91;;;30.32;34.24
80308;BME280;69616;43.522;1.348;2023-05-06T12:59:40;99484.88;;;30.38;34.06
80308;BME280;69616;43.522;1.348;2023-05-06T13:02:05;99483.03;;;30.56;33.96
80308;BME280;69616;43.522;1.348;2023-05-06T13:04:31;99490.50;;;30.72;34.27
80308;BME280;69616;43.522;1.348;2023-05-06T13:06:56;99478.91;;;30.88;33.79
80308;BME280;69616;43.522;1.348;2023-05-06T13:09:23;99479.25;;;30.67;34.13
80308;BME280;69616;43.522;1.348;2023-05-06T13:11:48;99474.19;;;30.72;33.19
80308;BME280;69616;43.522;1.348;2023-05-06T13:14:13;99477.75;;;30.73;32.87